sensor_id;sensor_type;location;lat;lon;timestamp;temperature;humidity
40257;DHT22;25977;45.462;9.210;2023-01-26T00:00:27;10.30;86.80
40257;DHT22;25977;45.462;9.210;2023-01-26T00:02:53;10.50;86.40
40257;DHT22;25977;45.462;9.210;2023-01-26T00:05:18;10.40;86.40
40257;DHT22;25977;45.462;9.210;2023-01-26T00:07:44;10.40;78.90
40257;DHT22;25977;45.462;9.210;2023-01-26T00:10:13;10.40;78.80
40257;DHT22;25977;45.462;9.210;2023-01-26T00:12:39;10.30;86.40
40257;DHT22;25977;45.462;9.210;2023-01-26T00:20:04;10.30;87.20
40257;DHT22;25977;45.462;9.210;2023-01-26T00:24:56;10.30;86.40
40257;DHT22;25977;45.462;9.210;2023-01-26T00:27:22;10.00;87.30
40257;DHT22;25977;45.462;9.210;2023-01-26T00:32:14;10.10;78.80
40257;DHT22;25977;45.462;9.210;2023-01-26T00:34:40;10.10;79.40
40257;DHT22;25977;45.462;9.210;2023-01-26T00:37:06;10.20;79.40
40257;DHT22;25977;45.462;9.210;2023-01-26T00:39:31;10.20;79.30
40257;DHT22;25977;45.462;9.210;2023-01-26T00:41:59;10.20;79.40
40257;DHT22;25977;45.462;9.210;2023-01-26T00:44:31;10.20;79.30
40257;DHT22;25977;45.462;9.210;2023-01-26T00:46:57;11.10;79.90
40257;DHT22;25977;45.462;9.210;2023-01-26T00:49:22;10.60;79.70
40257;DHT22;25977;45.462;9.210;2023-01-26T00:51:48;10.50;79.50
40257;DHT22;25977;45.462;9.210;2023-01-26T00:54:14;10.20;79.20
40257;DHT22;25977;45.462;9.210;2023-01-26T00:56:40;10.30;79.20
40257;DHT22;25977;45.462;9.210;2023-01-26T00:59:05;10.50;79.50
40257;DHT22;25977;45.462;9.210;2023-01-26T01:01:32;10.30;79.40
40257;DHT22;25977;45.462;9.210;2023-01-26T01:03:57;10.20;79.40
40257;DHT22;25977;45.462;9.210;2023-01-26T01:06:23;10.40;79.60
40257;DHT22;25977;45.462;9.210;2023-01-26T01:08:49;10.20;79.50
40257;DHT22;25977;45.462;9.210;2023-01-26T01:11:15;10.30;79.20
40257;DHT22;25977;45.462;9.210;2023-01-26T01:13:41;10.20;79.20
40257;DHT22;25977;45.462;9.210;2023-01-26T01:16:11;10.20;79.20
40257;DHT22;25977;45.462;9.210;2023-01-26T01:18:37;10.20;79.00
40257;DHT22;25977;45.462;9.210;2023-01-26T01:21:11;10.40;79.30
40257;DHT22;25977;45.462;9.210;2023-01-26T01:23:37;10.20;79.10
40257;DHT22;25977;45.462;9.210;2023-01-26T01:26:04;10.20;79.10
40257;DHT22;25977;45.462;9.210;2023-01-26T01:28:32;10.20;79.40
40257;DHT22;25977;45.462;9.210;2023-01-26T01:30:57;10.10;79.50
40257;DHT22;25977;45.462;9.210;2023-01-26T01:33:23;10.20;79.80
40257;DHT22;25977;45.462;9.210;2023-01-26T01:35:56;10.10;80.00
40257;DHT22;25977;45.462;9.210;2023-01-26T01:38:22;10.20;80.30
40257;DHT22;25977;45.462;9.210;2023-01-26T01:40:48;10.20;80.50
40257;DHT22;25977;45.462;9.210;2023-01-26T01:43:14;10.40;80.80
40257;DHT22;25977;45.462;9.210;2023-01-26T01:45:48;10.10;80.60
40257;DHT22;25977;45.462;9.210;2023-01-26T01:51:04;10.10;80.90
40257;DHT22;25977;45.462;9.210;2023-01-26T01:53:37;10.00;80.90
40257;DHT22;25977;45.462;9.210;2023-01-26T01:56:10;9.90;80.90
40257;DHT22;25977;45.462;9.210;2023-01-26T01:58:39;10.10;81.10
40257;DHT22;25977;45.462;9.210;2023-01-26T02:01:06;10.00;80.90
40257;DHT22;25977;45.462;9.210;2023-01-26T02:03:32;10.00;80.80
40257;DHT22;25977;45.462;9.210;2023-01-26T02:08:33;10.00;80.10
40257;DHT22;25977;45.462;9.210;2023-01-26T02:11:01;10.10;80.10
40257;DHT22;25977;45.462;9.210;2023-01-26T02:13:30;10.10;79.90
40257;DHT22;25977;45.462;9.210;2023-01-26T02:15:58;10.00;79.90
40257;DHT22;25977;45.462;9.210;2023-01-26T02:18:24;10.10;80.10
40257;DHT22;25977;45.462;9.210;2023-01-26T02:20:59;10.70;80.60
40257;DHT22;25977;45.462;9.210;2023-01-26T02:26:19;10.10;80.40
40257;DHT22;25977;45.462;9.210;2023-01-26T02:28:46;10.10;80.50
40257;DHT22;25977;45.462;9.210;2023-01-26T02:31:13;10.10;80.50
40257;DHT22;25977;45.462;9.210;2023-01-26T02:33:41;10.10;80.20
40257;DHT22;25977;45.462;9.210;2023-01-26T02:36:16;10.10;80.40
40257;DHT22;25977;45.462;9.210;2023-01-26T02:38:45;10.10;80.40
40257;DHT22;25977;45.462;9.210;2023-01-26T02:41:14;10.10;80.30
40257;DHT22;25977;45.462;9.210;2023-01-26T02:44:07;10.10;80.40
40257;DHT22;25977;45.462;9.210;2023-01-26T02:46:33;10.10;80.30
40257;DHT22;25977;45.462;9.210;2023-01-26T02:48:59;10.20;80.40
40257;DHT22;25977;45.462;9.210;2023-01-26T02:51:44;10.20;80.30
40257;DHT22;25977;45.462;9.210;2023-01-26T02:54:09;10.20;80.10
40257;DHT22;25977;45.462;9.210;2023-01-26T02:56:56;10.50;80.20
40257;DHT22;25977;45.462;9.210;2023-01-26T02:59:22;10.10;79.80
40257;DHT22;25977;45.462;9.210;2023-01-26T03:01:50;10.60;80.50
40257;DHT22;25977;45.462;9.210;2023-01-26T03:04:17;10.10;79.70
40257;DHT22;25977;45.462;9.210;2023-01-26T03:06:42;10.10;79.80
40257;DHT22;25977;45.462;9.210;2023-01-26T03:09:10;10.30;79.80
40257;DHT22;25977;45.462;9.210;2023-01-26T03:11:35;10.20;79.50
40257;DHT22;25977;45.462;9.210;2023-01-26T03:14:11;10.50;79.50
40257;DHT22;25977;45.462;9.210;2023-01-26T03:16:38;10.10;79.20
40257;DHT22;25977;45.462;9.210;2023-01-26T03:19:08;10.10;79.10
40257;DHT22;25977;45.462;9.210;2023-01-26T03:21:34;10.70;79.50
40257;DHT22;25977;45.462;9.210;2023-01-26T03:24:18;10.40;79.50
40257;DHT22;25977;45.462;9.210;2023-01-26T03:27:07;10.20;79.60
40257;DHT22;25977;45.462;9.210;2023-01-26T03:29:55;10.00;79.50
40257;DHT22;25977;45.462;9.210;2023-01-26T03:32:21;10.20;80.00
40257;DHT22;25977;45.462;9.210;2023-01-26T03:34:47;10.10;80.10
40257;DHT22;25977;45.462;9.210;2023-01-26T03:37:13;10.40;80.40
40257;DHT22;25977;45.462;9.210;2023-01-26T03:39:50;10.10;80.30
40257;DHT22;25977;45.462;9.210;2023-01-26T03:42:36;10.30;80.60
40257;DHT22;25977;45.462;9.210;2023-01-26T03:45:21;10.70;81.10
40257;DHT22;25977;45.462;9.210;2023-01-26T03:48:09;10.40;81.10
40257;DHT22;25977;45.462;9.210;2023-01-26T03:50:55;10.10;80.90
40257;DHT22;25977;45.462;9.210;2023-01-26T03:53:39;10.00;81.00
40257;DHT22;25977;45.462;9.210;2023-01-26T03:56:24;10.30;81.10
40257;DHT22;25977;45.462;9.210;2023-01-26T03:58:54;9.90;80.90
40257;DHT22;25977;45.462;9.210;2023-01-26T04:01:24;10.00;80.80
40257;DHT22;25977;45.462;9.210;2023-01-26T04:03:55;9.90;80.90
40257;DHT22;25977;45.462;9.210;2023-01-26T04:06:46;9.80;80.90
40257;DHT22;25977;45.462;9.210;2023-01-26T04:09:32;9.80;80.90
40257;DHT22;25977;45.462;9.210;2023-01-26T04:11:59;10.10;81.10
40257;DHT22;25977;45.462;9.210;2023-01-26T04:14:25;9.70;80.90
40257;DHT22;25977;45.462;9.210;2023-01-26T04:17:10;9.70;80.90
40257;DHT22;25977;45.462;9.210;2023-01-26T04:19:55;10.20;81.00
40257;DHT22;25977;45.462;9.210;2023-01-26T04:22:42;10.10;81.00
40257;DHT22;25977;45.462;9.210;2023-01-26T04:25:11;10.60;81.40
40257;DHT22;25977;45.462;9.210;2023-01-26T04:27:39;9.80;80.90
40257;DHT22;25977;45.462;9.210;2023-01-26T04:30:05;9.60;80.80
40257;DHT22;25977;45.462;9.210;2023-01-26T04:32:32;9.70;80.70
40257;DHT22;25977;45.462;9.210;2023-01-26T04:34:57;9.60;80.80
40257;DHT22;25977;45.462;9.210;2023-01-26T04:37:25;10.60;81.30
40257;DHT22;25977;45.462;9.210;2023-01-26T04:39:50;9.60;80.80
40257;DHT22;25977;45.462;9.210;2023-01-26T04:42:17;9.60;80.80
40257;DHT22;25977;45.462;9.210;2023-01-26T04:44:43;9.60;80.90
40257;DHT22;25977;45.462;9.210;2023-01-26T04:47:09;10.40;81.80
40257;DHT22;25977;45.462;9.210;2023-01-26T04:49:34;9.60;80.90
40257;DHT22;25977;45.462;9.210;2023-01-26T04:52:01;10.00;81.10
40257;DHT22;25977;45.462;9.210;2023-01-26T04:54:28;10.50;81.40
40257;DHT22;25977;45.462;9.210;2023-01-26T04:56:53;10.20;80.90
40257;DHT22;25977;45.462;9.210;2023-01-26T04:59:19;10.10;80.70
40257;DHT22;25977;45.462;9.210;2023-01-26T05:01:46;10.30;80.90
40257;DHT22;25977;45.462;9.210;2023-01-26T05:04:12;10.50;81.00
40257;DHT22;25977;45.462;9.210;2023-01-26T05:06:41;9.70;80.10
40257;DHT22;25977;45.462;9.210;2023-01-26T05:09:08;10.10;80.30
40257;DHT22;25977;45.462;9.210;2023-01-26T05:11:35;9.70;80.10
40257;DHT22;25977;45.462;9.210;2023-01-26T05:14:20;10.30;80.30
40257;DHT22;25977;45.462;9.210;2023-01-26T05:16:58;9.60;80.00
40257;DHT22;25977;45.462;9.210;2023-01-26T05:19:40;9.70;80.30
40257;DHT22;25977;45.462;9.210;2023-01-26T05:22:33;9.60;80.00
40257;DHT22;25977;45.462;9.210;2023-01-26T05:25:19;9.70;88.10
40257;DHT22;25977;45.462;9.210;2023-01-26T05:27:51;10.90;80.80
40257;DHT22;25977;45.462;9.210;2023-01-26T05:30:18;9.70;80.00
40257;DHT22;25977;45.462;9.210;2023-01-26T05:32:45;9.70;79.90
40257;DHT22;25977;45.462;9.210;2023-01-26T05:35:12;9.50;87.30
40257;DHT22;25977;45.462;9.210;2023-01-26T05:37:39;10.20;80.00
40257;DHT22;25977;45.462;9.210;2023-01-26T05:40:11;9.70;86.10
40257;DHT22;25977;45.462;9.210;2023-01-26T05:42:37;9.60;79.20
40257;DHT22;25977;45.462;9.210;2023-01-26T05:45:12;9.90;86.10
40257;DHT22;25977;45.462;9.210;2023-01-26T05:47:39;9.50;86.00
40257;DHT22;25977;45.462;9.210;2023-01-26T05:50:06;9.90;86.00
40257;DHT22;25977;45.462;9.210;2023-01-26T05:54:59;9.60;86.20
40257;DHT22;25977;45.462;9.210;2023-01-26T05:57:25;10.10;78.70
40257;DHT22;25977;45.462;9.210;2023-01-26T05:59:55;9.40;85.70
40257;DHT22;25977;45.462;9.210;2023-01-26T06:02:21;9.60;85.50
40257;DHT22;25977;45.462;9.210;2023-01-26T06:04:47;10.70;78.80
40257;DHT22;25977;45.462;9.210;2023-01-26T06:07:14;9.90;86.10
40257;DHT22;25977;45.462;9.210;2023-01-26T06:12:21;9.90;79.20
40257;DHT22;25977;45.462;9.210;2023-01-26T06:14:50;9.40;86.00
40257;DHT22;25977;45.462;9.210;2023-01-26T06:17:17;9.30;84.80
40257;DHT22;25977;45.462;9.210;2023-01-26T06:19:44;9.20;78.40
40257;DHT22;25977;45.462;9.210;2023-01-26T06:22:11;9.40;78.70
40257;DHT22;25977;45.462;9.210;2023-01-26T06:24:41;9.40;78.80
40257;DHT22;25977;45.462;9.210;2023-01-26T06:27:11;10.20;78.90
40257;DHT22;25977;45.462;9.210;2023-01-26T06:29:37;9.10;77.80
40257;DHT22;25977;45.462;9.210;2023-01-26T06:32:03;9.20;78.00
40257;DHT22;25977;45.462;9.210;2023-01-26T06:34:29;9.30;78.20
40257;DHT22;25977;45.462;9.210;2023-01-26T06:36:55;9.30;78.30
40257;DHT22;25977;45.462;9.210;2023-01-26T06:39:26;10.40;79.00
40257;DHT22;25977;45.462;9.210;2023-01-26T06:41:52;10.20;78.90
40257;DHT22;25977;45.462;9.210;2023-01-26T06:44:18;9.90;78.90
40257;DHT22;25977;45.462;9.210;2023-01-26T06:46:44;9.50;78.90
40257;DHT22;25977;45.462;9.210;2023-01-26T06:49:09;10.00;79.40
40257;DHT22;25977;45.462;9.210;2023-01-26T06:51:51;9.20;79.20
40257;DHT22;25977;45.462;9.210;2023-01-26T06:54:24;8.90;85.60
40257;DHT22;25977;45.462;9.210;2023-01-26T06:57:17;10.20;79.80
40257;DHT22;25977;45.462;9.210;2023-01-26T07:00:03;9.00;79.10
40257;DHT22;25977;45.462;9.210;2023-01-26T07:02:49;9.10;79.10
40257;DHT22;25977;45.462;9.210;2023-01-26T07:05:14;9.00;79.20
40257;DHT22;25977;45.462;9.210;2023-01-26T07:07:40;9.00;79.20
40257;DHT22;25977;45.462;9.210;2023-01-26T07:10:06;9.10;79.50
40257;DHT22;25977;45.462;9.210;2023-01-26T07:12:43;9.10;79.50
40257;DHT22;25977;45.462;9.210;2023-01-26T07:15:10;9.50;79.70
40257;DHT22;25977;45.462;9.210;2023-01-26T07:17:38;9.10;79.50
40257;DHT22;25977;45.462;9.210;2023-01-26T07:20:04;9.10;79.40
40257;DHT22;25977;45.462;9.210;2023-01-26T07:22:30;9.00;79.00
40257;DHT22;25977;45.462;9.210;2023-01-26T07:24:56;9.00;79.00
40257;DHT22;25977;45.462;9.210;2023-01-26T07:27:21;9.00;79.50
40257;DHT22;25977;45.462;9.210;2023-01-26T07:29:47;9.00;79.60
40257;DHT22;25977;45.462;9.210;2023-01-26T07:32:14;9.00;79.40
40257;DHT22;25977;45.462;9.210;2023-01-26T07:34:39;8.90;79.70
40257;DHT22;25977;45.462;9.210;2023-01-26T07:37:05;9.00;79.80
40257;DHT22;25977;45.462;9.210;2023-01-26T07:39:31;9.00;79.50
40257;DHT22;25977;45.462;9.210;2023-01-26T07:51:58;9.40;85.60
40257;DHT22;25977;45.462;9.210;2023-01-26T07:54:24;8.80;83.50
40257;DHT22;25977;45.462;9.210;2023-01-26T07:56:53;9.20;88.30
40257;DHT22;25977;45.462;9.210;2023-01-26T07:59:22;8.90;78.70
40257;DHT22;25977;45.462;9.210;2023-01-26T08:01:49;9.00;78.50
40257;DHT22;25977;45.462;9.210;2023-01-26T08:04:15;8.80;87.40
40257;DHT22;25977;45.462;9.210;2023-01-26T08:09:07;9.10;85.20
40257;DHT22;25977;45.462;9.210;2023-01-26T08:11:33;9.10;77.70
40257;DHT22;25977;45.462;9.210;2023-01-26T08:13:59;9.40;78.30
40257;DHT22;25977;45.462;9.210;2023-01-26T08:16:25;9.10;78.00
40257;DHT22;25977;45.462;9.210;2023-01-26T08:18:50;9.10;77.70
40257;DHT22;25977;45.462;9.210;2023-01-26T08:21:17;10.30;77.80
40257;DHT22;25977;45.462;9.210;2023-01-26T08:23:48;9.80;77.60
40257;DHT22;25977;45.462;9.210;2023-01-26T08:26:14;9.30;84.20
40257;DHT22;25977;45.462;9.210;2023-01-26T08:28:42;9.20;77.20
40257;DHT22;25977;45.462;9.210;2023-01-26T08:31:10;9.50;77.10
40257;DHT22;25977;45.462;9.210;2023-01-26T08:33:37;9.20;76.70
40257;DHT22;25977;45.462;9.210;2023-01-26T08:36:05;9.30;76.40
40257;DHT22;25977;45.462;9.210;2023-01-26T08:38:32;9.40;76.30
40257;DHT22;25977;45.462;9.210;2023-01-26T08:40:58;9.70;76.10
40257;DHT22;25977;45.462;9.210;2023-01-26T08:43:24;9.60;75.80
40257;DHT22;25977;45.462;9.210;2023-01-26T08:45:50;9.40;75.50
40257;DHT22;25977;45.462;9.210;2023-01-26T08:48:16;9.40;74.90
40257;DHT22;25977;45.462;9.210;2023-01-26T08:50:43;9.40;74.70
40257;DHT22;25977;45.462;9.210;2023-01-26T08:53:09;9.40;74.50
40257;DHT22;25977;45.462;9.210;2023-01-26T08:55:34;9.40;74.70
40257;DHT22;25977;45.462;9.210;2023-01-26T08:58:00;9.40;74.70
40257;DHT22;25977;45.462;9.210;2023-01-26T09:00:27;9.50;74.80
40257;DHT22;25977;45.462;9.210;2023-01-26T09:03:00;9.50;74.50
40257;DHT22;25977;45.462;9.210;2023-01-26T09:05:27;9.50;74.30
40257;DHT22;25977;45.462;9.210;2023-01-26T09:07:53;9.50;74.10
40257;DHT22;25977;45.462;9.210;2023-01-26T09:10:18;9.50;73.60
40257;DHT22;25977;45.462;9.210;2023-01-26T09:12:44;9.50;74.10
40257;DHT22;25977;45.462;9.210;2023-01-26T09:15:10;9.50;73.90
40257;DHT22;25977;45.462;9.210;2023-01-26T09:17:36;9.40;73.60
40257;DHT22;25977;45.462;9.210;2023-01-26T09:20:05;9.40;73.60
40257;DHT22;25977;45.462;9.210;2023-01-26T09:22:33;9.40;73.10
40257;DHT22;25977;45.462;9.210;2023-01-26T09:24:58;9.60;73.00
40257;DHT22;25977;45.462;9.210;2023-01-26T09:27:24;9.50;72.40
40257;DHT22;25977;45.462;9.210;2023-01-26T09:29:50;9.40;72.20
40257;DHT22;25977;45.462;9.210;2023-01-26T09:32:16;9.50;72.20
40257;DHT22;25977;45.462;9.210;2023-01-26T09:34:42;9.50;71.70
40257;DHT22;25977;45.462;9.210;2023-01-26T09:37:08;9.50;71.20
40257;DHT22;25977;45.462;9.210;2023-01-26T09:39:34;9.40;71.30
40257;DHT22;25977;45.462;9.210;2023-01-26T09:47:54;9.50;71.60
40257;DHT22;25977;45.462;9.210;2023-01-26T09:50:30;9.50;71.80
40257;DHT22;25977;45.462;9.210;2023-01-26T09:55:39;9.60;71.30
40257;DHT22;25977;45.462;9.210;2023-01-26T09:58:13;9.50;71.10
40257;DHT22;25977;45.462;9.210;2023-01-26T10:03:36;9.80;70.90
40257;DHT22;25977;45.462;9.210;2023-01-26T10:06:25;9.80;70.60
40257;DHT22;25977;45.462;9.210;2023-01-26T10:09:23;9.80;70.70
40257;DHT22;25977;45.462;9.210;2023-01-26T10:12:17;9.70;70.60
40257;DHT22;25977;45.462;9.210;2023-01-26T10:15:02;9.70;70.50
40257;DHT22;25977;45.462;9.210;2023-01-26T10:17:40;9.80;70.50
40257;DHT22;25977;45.462;9.210;2023-01-26T10:23:11;9.80;70.60
40257;DHT22;25977;45.462;9.210;2023-01-26T10:25:41;9.90;70.80
40257;DHT22;25977;45.462;9.210;2023-01-26T10:30:42;9.80;70.90
40257;DHT22;25977;45.462;9.210;2023-01-26T10:33:23;9.80;71.00
40257;DHT22;25977;45.462;9.210;2023-01-26T10:35:49;9.80;71.00
40257;DHT22;25977;45.462;9.210;2023-01-26T10:38:38;9.90;71.10
40257;DHT22;25977;45.462;9.210;2023-01-26T10:46:28;9.90;71.20
40257;DHT22;25977;45.462;9.210;2023-01-26T10:49:14;9.90;71.20
40257;DHT22;25977;45.462;9.210;2023-01-26T10:51:43;9.90;71.20
40257;DHT22;25977;45.462;9.210;2023-01-26T10:54:25;9.90;71.40
40257;DHT22;25977;45.462;9.210;2023-01-26T10:57:01;9.90;71.30
40257;DHT22;25977;45.462;9.210;2023-01-26T10:59:36;9.90;71.20
40257;DHT22;25977;45.462;9.210;2023-01-26T11:07:46;9.90;71.60
40257;DHT22;25977;45.462;9.210;2023-01-26T11:12:44;10.00;71.50
40257;DHT22;25977;45.462;9.210;2023-01-26T11:15:24;10.00;71.50
40257;DHT22;25977;45.462;9.210;2023-01-26T11:31:28;10.00;71.20
40257;DHT22;25977;45.462;9.210;2023-01-26T11:34:24;10.00;71.20
40257;DHT22;25977;45.462;9.210;2023-01-26T11:39:43;10.00;71.30
40257;DHT22;25977;45.462;9.210;2023-01-26T11:42:26;10.00;71.30
40257;DHT22;25977;45.462;9.210;2023-01-26T11:45:21;10.10;71.10
40257;DHT22;25977;45.462;9.210;2023-01-26T11:53:31;10.40;70.90
40257;DHT22;25977;45.462;9.210;2023-01-26T12:02:28;10.50;70.40
40257;DHT22;25977;45.462;9.210;2023-01-26T12:04:57;10.70;70.40
40257;DHT22;25977;45.462;9.210;2023-01-26T12:10:17;10.70;70.20
40257;DHT22;25977;45.462;9.210;2023-01-26T12:12:52;10.70;70.10
40257;DHT22;25977;45.462;9.210;2023-01-26T12:15:41;10.80;69.90
40257;DHT22;25977;45.462;9.210;2023-01-26T12:18:10;10.80;69.60
40257;DHT22;25977;45.462;9.210;2023-01-26T12:20:52;10.70;69.70
40257;DHT22;25977;45.462;9.210;2023-01-26T12:23:47;10.70;70.00
40257;DHT22;25977;45.462;9.210;2023-01-26T12:26:17;10.70;70.00
40257;DHT22;25977;45.462;9.210;2023-01-26T12:28:49;10.80;69.90
40257;DHT22;25977;45.462;9.210;2023-01-26T12:31:31;11.50;70.10
40257;DHT22;25977;45.462;9.210;2023-01-26T12:33:58;10.80;69.60
40257;DHT22;25977;45.462;9.210;2023-01-26T12:44:39;10.90;69.40
40257;DHT22;25977;45.462;9.210;2023-01-26T12:52:24;11.20;68.80
40257;DHT22;25977;45.462;9.210;2023-01-26T12:55:14;11.20;68.80
40257;DHT22;25977;45.462;9.210;2023-01-26T12:58:01;11.30;68.80
40257;DHT22;25977;45.462;9.210;2023-01-26T13:03:03;11.50;67.80
40257;DHT22;25977;45.462;9.210;2023-01-26T13:05:34;11.50;67.50
40257;DHT22;25977;45.462;9.210;2023-01-26T13:10:58;11.50;67.40
40257;DHT22;25977;45.462;9.210;2023-01-26T13:13:28;11.40;67.40
40257;DHT22;25977;45.462;9.210;2023-01-26T13:18:52;11.30;67.60
40257;DHT22;25977;45.462;9.210;2023-01-26T13:23:58;11.30;67.70
40257;DHT22;25977;45.462;9.210;2023-01-26T13:26:47;11.30;67.70
40257;DHT22;25977;45.462;9.210;2023-01-26T13:29:26;11.20;67.80
40257;DHT22;25977;45.462;9.210;2023-01-26T13:31:54;11.20;67.90
40257;DHT22;25977;45.462;9.210;2023-01-26T13:34:30;11.20;68.20
40257;DHT22;25977;45.462;9.210;2023-01-26T13:37:40;11.20;68.10
40257;DHT22;25977;45.462;9.210;2023-01-26T13:40:18;11.30;68.00
40257;DHT22;25977;45.462;9.210;2023-01-26T13:43:14;11.10;68.20
40257;DHT22;25977;45.462;9.210;2023-01-26T13:51:17;11.20;68.20
40257;DHT22;25977;45.462;9.210;2023-01-26T13:53:52;11.30;67.90
40257;DHT22;25977;45.462;9.210;2023-01-26T13:56:20;11.40;67.90
40257;DHT22;25977;45.462;9.210;2023-01-26T13:58:46;11.30;67.90
40257;DHT22;25977;45.462;9.210;2023-01-26T14:01:13;11.30;68.10
40257;DHT22;25977;45.462;9.210;2023-01-26T14:03:39;11.20;68.20
40257;DHT22;25977;45.462;9.210;2023-01-26T14:06:15;11.20;68.60
40257;DHT22;25977;45.462;9.210;2023-01-26T14:08:46;11.10;68.40
40257;DHT22;25977;45.462;9.210;2023-01-26T14:11:18;11.20;68.60
40257;DHT22;25977;45.462;9.210;2023-01-26T14:13:49;10.80;69.00
40257;DHT22;25977;45.462;9.210;2023-01-26T14:19:15;10.80;69.30
40257;DHT22;25977;45.462;9.210;2023-01-26T14:21:58;10.90;69.70
40257;DHT22;25977;45.462;9.210;2023-01-26T14:24:35;10.70;69.60
40257;DHT22;25977;45.462;9.210;2023-01-26T14:27:04;10.60;69.80
40257;DHT22;25977;45.462;9.210;2023-01-26T14:29:36;10.60;70.00
40257;DHT22;25977;45.462;9.210;2023-01-26T14:32:03;10.60;69.80
40257;DHT22;25977;45.462;9.210;2023-01-26T14:34:30;10.60;70.00
40257;DHT22;25977;45.462;9.210;2023-01-26T14:37:11;10.60;69.80
40257;DHT22;25977;45.462;9.210;2023-01-26T14:39:38;10.60;69.90
40257;DHT22;25977;45.462;9.210;2023-01-26T14:42:05;10.60;69.70
40257;DHT22;25977;45.462;9.210;2023-01-26T14:44:31;10.50;69.60
40257;DHT22;25977;45.462;9.210;2023-01-26T14:47:03;10.90;70.10
40257;DHT22;25977;45.462;9.210;2023-01-26T14:52:29;10.50;69.90
40257;DHT22;25977;45.462;9.210;2023-01-26T14:55:24;11.00;70.10
40257;DHT22;25977;45.462;9.210;2023-01-26T14:57:48;10.50;69.70
40257;DHT22;25977;45.462;9.210;2023-01-26T15:00:27;10.60;69.80
40257;DHT22;25977;45.462;9.210;2023-01-26T15:02:55;10.40;69.70
40257;DHT22;25977;45.462;9.210;2023-01-26T15:05:30;10.30;69.60
40257;DHT22;25977;45.462;9.210;2023-01-26T15:08:04;10.30;69.70
40257;DHT22;25977;45.462;9.210;2023-01-26T15:13:20;10.30;69.60
40257;DHT22;25977;45.462;9.210;2023-01-26T15:16:04;10.60;70.00
40257;DHT22;25977;45.462;9.210;2023-01-26T15:18:31;10.30;69.90
40257;DHT22;25977;45.462;9.210;2023-01-26T15:21:09;10.30;70.20
40257;DHT22;25977;45.462;9.210;2023-01-26T15:23:37;10.30;69.70
40257;DHT22;25977;45.462;9.210;2023-01-26T15:26:12;10.70;69.70
40257;DHT22;25977;45.462;9.210;2023-01-26T15:28:38;10.30;69.40
40257;DHT22;25977;45.462;9.210;2023-01-26T15:31:04;10.60;70.00
40257;DHT22;25977;45.462;9.210;2023-01-26T15:36:03;10.40;70.10
40257;DHT22;25977;45.462;9.210;2023-01-26T15:38:28;10.30;69.90
40257;DHT22;25977;45.462;9.210;2023-01-26T15:40:54;10.70;70.60
40257;DHT22;25977;45.462;9.210;2023-01-26T15:43:20;10.30;70.40
40257;DHT22;25977;45.462;9.210;2023-01-26T15:45:54;10.70;70.50
40257;DHT22;25977;45.462;9.210;2023-01-26T15:48:22;10.20;70.30
40257;DHT22;25977;45.462;9.210;2023-01-26T15:50:51;10.20;70.40
40257;DHT22;25977;45.462;9.210;2023-01-26T15:53:19;10.40;70.80
40257;DHT22;25977;45.462;9.210;2023-01-26T15:55:47;10.10;70.60
40257;DHT22;25977;45.462;9.210;2023-01-26T15:58:21;10.10;70.50
40257;DHT22;25977;45.462;9.210;2023-01-26T16:00:47;10.20;69.90
40257;DHT22;25977;45.462;9.210;2023-01-26T16:03:18;10.20;70.40
40257;DHT22;25977;45.462;9.210;2023-01-26T16:05:45;10.20;70.10
40257;DHT22;25977;45.462;9.210;2023-01-26T16:08:13;10.30;70.20
40257;DHT22;25977;45.462;9.210;2023-01-26T16:10:39;10.10;70.70
40257;DHT22;25977;45.462;9.210;2023-01-26T16:13:10;10.40;70.40
40257;DHT22;25977;45.462;9.210;2023-01-26T16:15:41;10.10;69.80
40257;DHT22;25977;45.462;9.210;2023-01-26T16:18:07;10.10;69.70
40257;DHT22;25977;45.462;9.210;2023-01-26T16:20:34;10.10;69.80
40257;DHT22;25977;45.462;9.210;2023-01-26T16:23:00;10.20;69.80
40257;DHT22;25977;45.462;9.210;2023-01-26T16:25:30;10.40;69.70
40257;DHT22;25977;45.462;9.210;2023-01-26T16:27:58;10.70;69.90
40257;DHT22;25977;45.462;9.210;2023-01-26T16:30:25;9.90;69.50
40257;DHT22;25977;45.462;9.210;2023-01-26T16:32:51;10.00;69.70
40257;DHT22;25977;45.462;9.210;2023-01-26T16:35:20;10.00;69.60
40257;DHT22;25977;45.462;9.210;2023-01-26T16:37:46;10.40;69.80
40257;DHT22;25977;45.462;9.210;2023-01-26T16:40:16;9.90;69.70
40257;DHT22;25977;45.462;9.210;2023-01-26T16:42:45;9.90;69.70
40257;DHT22;25977;45.462;9.210;2023-01-26T16:45:20;10.10;69.80
40257;DHT22;25977;45.462;9.210;2023-01-26T16:47:56;10.20;69.80
40257;DHT22;25977;45.462;9.210;2023-01-26T16:50:23;9.90;69.70
40257;DHT22;25977;45.462;9.210;2023-01-26T16:52:49;9.90;69.80
40257;DHT22;25977;45.462;9.210;2023-01-26T16:55:15;10.70;70.00
40257;DHT22;25977;45.462;9.210;2023-01-26T16:57:43;9.80;69.70
40257;DHT22;25977;45.462;9.210;2023-01-26T17:00:13;7.10;68.80
40257;DHT22;25977;45.462;9.210;2023-01-26T17:02:41;9.80;69.80
40257;DHT22;25977;45.462;9.210;2023-01-26T17:05:14;9.90;69.60
40257;DHT22;25977;45.462;9.210;2023-01-26T17:07:41;9.80;69.60
40257;DHT22;25977;45.462;9.210;2023-01-26T17:10:07;9.70;77.20
40257;DHT22;25977;45.462;9.210;2023-01-26T17:12:33;9.80;69.80
40257;DHT22;25977;45.462;9.210;2023-01-26T17:14:58;12.50;79.00
40257;DHT22;25977;45.462;9.210;2023-01-26T17:22:17;9.50;72.50
40257;DHT22;25977;45.462;9.210;2023-01-26T17:24:43;9.40;76.70
40257;DHT22;25977;45.462;9.210;2023-01-26T17:27:09;9.80;77.80
40257;DHT22;25977;45.462;9.210;2023-01-26T17:32:04;9.80;70.40
40257;DHT22;25977;45.462;9.210;2023-01-26T17:34:29;9.50;79.10
40257;DHT22;25977;45.462;9.210;2023-01-26T17:44:15;9.80;76.80
40257;DHT22;25977;45.462;9.210;2023-01-26T17:46:41;9.80;79.20
40257;DHT22;25977;45.462;9.210;2023-01-26T17:49:07;9.80;79.00
40257;DHT22;25977;45.462;9.210;2023-01-26T17:51:33;9.30;78.80
40257;DHT22;25977;45.462;9.210;2023-01-26T17:53:58;9.30;78.00
40257;DHT22;25977;45.462;9.210;2023-01-26T17:58:53;9.80;79.00
40257;DHT22;25977;45.462;9.210;2023-01-26T18:01:21;10.90;71.20
40257;DHT22;25977;45.462;9.210;2023-01-26T18:03:47;9.50;71.20
40257;DHT22;25977;45.462;9.210;2023-01-26T18:06:13;9.60;71.00
40257;DHT22;25977;45.462;9.210;2023-01-26T18:08:39;9.60;71.20
40257;DHT22;25977;45.462;9.210;2023-01-26T18:11:07;9.50;70.70
40257;DHT22;25977;45.462;9.210;2023-01-26T18:13:33;9.50;70.70
40257;DHT22;25977;45.462;9.210;2023-01-26T18:15:59;9.50;70.70
40257;DHT22;25977;45.462;9.210;2023-01-26T18:18:27;9.40;70.90
40257;DHT22;25977;45.462;9.210;2023-01-26T18:20:53;9.40;70.90
40257;DHT22;25977;45.462;9.210;2023-01-26T18:23:20;9.40;70.90
40257;DHT22;25977;45.462;9.210;2023-01-26T18:25:46;9.40;70.90
40257;DHT22;25977;45.462;9.210;2023-01-26T18:28:13;9.40;71.10
40257;DHT22;25977;45.462;9.210;2023-01-26T18:30:39;9.40;71.10
40257;DHT22;25977;45.462;9.210;2023-01-26T18:33:06;9.40;71.20